createdAt,value
2019-04-21T00:00:46.415Z,15.67
2019-04-21T00:03:18.244Z,17.43
2019-04-21T00:06:03.381Z,16.47
2019-04-21T00:11:09.691Z,15.40
2019-04-21T00:13:28.080Z,18.83
2019-04-21T00:15:53.780Z,20.00
2019-04-21T00:18:50.675Z,18.77
2019-04-21T00:21:28.208Z,18.27
2019-04-21T00:24:20.214Z,18.10
2019-04-21T00:27:00.632Z,16.73
2019-04-21T00:29:30.366Z,14.80
2019-04-21T00:31:56.011Z,16.87
2019-04-21T00:34:11.207Z,20.00
2019-04-21T00:36:51.503Z,19.50
2019-04-21T00:41:59.604Z,15.57
2019-04-21T00:44:24.595Z,17.80
2019-04-21T00:47:00.672Z,18.33
2019-04-21T00:49:34.248Z,17.43
2019-04-21T00:52:43.645Z,20.87
2019-04-21T00:55:07.748Z,15.73
2019-04-21T00:57:34.322Z,15.23
2019-04-21T01:00:01.206Z,20.83
2019-04-21T01:02:32.977Z,16.70
2019-04-21T01:05:04.869Z,18.03
2019-04-21T01:07:32.587Z,16.07
2019-04-21T01:09:52.544Z,16.30
2019-04-21T01:12:37.371Z,19.10
2019-04-21T01:15:10.910Z,20.37
2019-04-21T01:17:35.722Z,19.97
2019-04-21T01:20:01.731Z,21.80
2019-04-21T01:22:17.198Z,20.43
2019-04-21T01:24:53.523Z,22.87
2019-04-21T01:27:31.902Z,17.97
2019-04-21T01:30:14.297Z,23.83
2019-04-21T01:32:42.637Z,20.37
2019-04-21T01:35:13.300Z,18.30
2019-04-21T01:37:49.766Z,27.50
2019-04-21T01:40:21.279Z,18.87
2019-04-21T01:42:48.141Z,19.90
2019-04-21T01:45:14.650Z,18.73
2019-04-21T01:47:40.854Z,20.03
2019-04-21T01:50:09.907Z,18.33
2019-04-21T01:52:57.564Z,18.77
2019-04-21T01:55:30.738Z,21.47
2019-04-21T01:58:01.974Z,20.43
2019-04-21T02:00:39.075Z,19.43
2019-04-21T02:03:37.532Z,20.07
2019-04-21T02:05:51.098Z,20.33
2019-04-21T02:08:15.295Z,19.67
2019-04-21T02:10:56.041Z,21.00
2019-04-21T02:13:17.233Z,20.53
2019-04-21T02:15:59.289Z,21.77
2019-04-21T02:18:24.800Z,20.80
2019-04-21T02:20:41.028Z,21.90
2019-04-21T02:25:58.776Z,21.37
2019-04-21T02:28:36.731Z,19.77
2019-04-21T02:31:18.672Z,24.37
2019-04-21T02:36:27.451Z,22.17
2019-04-21T02:38:52.982Z,20.30
2019-04-21T02:41:10.468Z,21.20
2019-04-21T02:43:46.579Z,20.63
2019-04-21T02:46:15.111Z,24.53
2019-04-21T02:48:43.421Z,22.43
2019-04-21T02:54:08.020Z,23.77
2019-04-21T02:56:21.721Z,21.10
2019-04-21T03:04:34.598Z,23.57
2019-04-21T03:09:43.235Z,24.60
2019-04-21T03:12:11.538Z,21.83
2019-04-21T03:14:56.591Z,24.63
2019-04-21T03:17:14.610Z,24.57
2019-04-21T03:19:54.077Z,24.90
2019-04-21T03:22:20.828Z,24.63
2019-04-21T03:35:18.920Z,23.73
2019-04-21T03:39:54.459Z,25.40
2019-04-21T03:50:05.213Z,23.10
2019-04-21T03:55:48.835Z,28.23
2019-04-21T03:58:04.799Z,24.23
2019-04-21T04:00:42.754Z,26.77
2019-04-21T04:03:42.168Z,28.30
2019-04-21T04:14:03.802Z,32.40
2019-04-21T04:16:29.453Z,28.93
2019-04-21T04:21:40.014Z,29.20
2019-04-21T04:24:11.043Z,30.53
2019-04-21T04:26:37.371Z,28.37
2019-04-21T04:34:22.339Z,28.83
2019-04-21T04:39:42.732Z,29.33
2019-04-21T04:44:57.074Z,31.20
2019-04-21T04:49:51.568Z,32.27
2019-04-21T04:57:29.110Z,28.03
2019-04-21T04:59:49.560Z,32.43
2019-04-21T05:07:21.262Z,33.27
2019-04-21T05:09:52.405Z,35.23
2019-04-21T05:12:19.715Z,37.33
2019-04-21T05:14:51.718Z,33.73
2019-04-21T05:17:30.916Z,37.03
2019-04-21T05:22:22.323Z,34.47
2019-04-21T05:24:43.973Z,37.50
2019-04-21T05:27:29.604Z,34.90
2019-04-21T05:30:07.178Z,35.30
2019-04-21T05:32:48.869Z,35.63
2019-04-21T05:35:20.093Z,39.93
2019-04-21T05:38:12.420Z,42.27
2019-04-21T05:40:38.907Z,38.40
2019-04-21T05:43:18.673Z,40.53
2019-04-21T05:45:50.156Z,37.23
2019-04-21T05:48:52.504Z,42.57
2019-04-21T05:51:03.709Z,45.37
2019-04-21T05:53:35.906Z,38.50
2019-04-21T05:56:12.896Z,42.80
2019-04-21T05:58:43.984Z,38.93
2019-04-21T06:06:20.281Z,40.03
2019-04-21T06:08:46.921Z,39.23
2019-04-21T06:11:22.179Z,38.23
2019-04-21T06:13:54.976Z,38.33
2019-04-21T06:16:21.441Z,39.67
2019-04-21T06:18:57.285Z,41.60
2019-04-21T06:21:21.965Z,45.83
2019-04-21T06:23:51.512Z,42.23
2019-04-21T06:28:56.865Z,44.83
2019-04-21T06:31:47.122Z,39.67
2019-04-21T06:34:00.239Z,45.93
2019-04-21T06:36:49.288Z,44.07
2019-04-21T06:39:12.028Z,42.83
2019-04-21T06:44:08.217Z,42.40
2019-04-21T06:49:08.604Z,43.43
2019-04-21T06:51:38.952Z,44.07
2019-04-21T06:54:09.644Z,41.30
2019-04-21T06:56:48.279Z,43.77
2019-04-21T06:59:21.040Z,41.93
2019-04-21T07:02:05.323Z,42.50
2019-04-21T07:04:21.019Z,38.63
2019-04-21T07:11:44.538Z,45.43
2019-04-21T07:16:53.074Z,38.47
2019-04-21T07:19:31.914Z,39.07
2019-04-21T07:22:03.222Z,39.47
2019-04-21T07:24:27.616Z,40.90
2019-04-21T07:29:45.322Z,38.53
2019-04-21T07:31:59.147Z,36.83
2019-04-21T07:34:29.072Z,37.23
2019-04-21T07:36:55.917Z,38.70
2019-04-21T07:39:25.542Z,38.60
2019-04-21T07:41:53.982Z,39.27
2019-04-21T07:44:22.851Z,42.23
2019-04-21T07:46:50.516Z,50.23
2019-04-21T07:50:04.977Z,40.83
2019-04-21T07:52:42.534Z,37.13
2019-04-21T07:57:37.606Z,39.97
2019-04-21T08:00:21.406Z,38.30
2019-04-21T08:03:05.254Z,40.37
2019-04-21T08:07:57.153Z,40.37
2019-04-21T08:10:15.671Z,46.13
2019-04-21T08:12:41.920Z,38.50
2019-04-21T08:15:24.004Z,39.50
2019-04-21T08:17:47.268Z,37.27
2019-04-21T08:20:21.605Z,42.37
2019-04-21T08:22:51.000Z,43.60
2019-04-21T08:25:19.589Z,40.57
2019-04-21T08:27:54.505Z,38.53
2019-04-21T08:30:28.787Z,41.93
2019-04-21T08:33:02.410Z,39.70
2019-04-21T08:37:55.314Z,41.87
2019-04-21T08:40:31.655Z,36.93
2019-04-21T08:42:58.180Z,43.30
2019-04-21T08:48:02.723Z,41.27
2019-04-21T08:50:30.974Z,39.40
2019-04-21T08:53:04.021Z,38.30
2019-04-21T08:56:06.779Z,37.87
2019-04-21T08:59:05.416Z,39.30
2019-04-21T09:01:36.841Z,42.67
2019-04-21T09:04:18.694Z,35.60
2019-04-21T09:06:54.196Z,34.50
2019-04-21T09:09:14.742Z,34.07
2019-04-21T09:11:46.186Z,42.27
2019-04-21T09:14:13.398Z,32.23
2019-04-21T09:16:41.086Z,31.23
2019-04-21T09:19:20.158Z,31.83
2019-04-21T09:24:18.987Z,33.13
2019-04-21T09:26:48.471Z,30.27
2019-04-21T09:29:10.871Z,28.20
2019-04-21T09:31:37.460Z,24.60
2019-04-21T09:34:04.757Z,32.70
2019-04-21T09:36:38.921Z,29.57
2019-04-21T09:39:09.175Z,30.20
2019-04-21T09:41:36.387Z,28.13
2019-04-21T09:44:08.719Z,26.17
2019-04-21T09:46:41.787Z,28.33
2019-04-21T09:49:12.119Z,28.07
2019-04-21T09:51:37.594Z,31.67
2019-04-21T09:54:12.620Z,27.77
2019-04-21T09:56:45.437Z,27.80
2019-04-21T09:59:18.028Z,29.33
2019-04-21T10:01:55.852Z,28.67
2019-04-21T10:04:10.290Z,24.73
2019-04-21T10:06:39.579Z,21.57
2019-04-21T10:09:13.891Z,21.97
2019-04-21T10:11:39.782Z,25.87
2019-04-21T10:14:09.742Z,29.33
2019-04-21T10:17:10.876Z,23.20
2019-04-21T10:19:40.226Z,21.37
2019-04-21T10:22:10.541Z,22.67
2019-04-21T10:24:40.498Z,19.60
2019-04-21T10:27:12.248Z,23.77
2019-04-21T10:29:43.143Z,21.37
2019-04-21T10:32:11.511Z,23.63
2019-04-21T10:34:41.242Z,19.63
2019-04-21T10:37:11.212Z,19.37
2019-04-21T10:39:41.847Z,17.77
2019-04-21T10:42:11.328Z,20.40
2019-04-21T10:44:41.017Z,18.43
2019-04-21T10:47:11.014Z,19.87
2019-04-21T10:49:40.374Z,20.57
2019-04-21T10:52:17.122Z,13.33
2019-04-21T10:55:07.270Z,18.53
2019-04-21T10:57:22.458Z,17.60
2019-04-21T10:59:54.166Z,19.37
2019-04-21T11:02:34.966Z,20.50
2019-04-21T11:05:04.782Z,19.87
2019-04-21T11:08:01.205Z,20.00
2019-04-21T11:10:22.173Z,20.23
2019-04-21T11:12:52.687Z,17.90
2019-04-21T11:15:23.180Z,20.07
2019-04-21T11:17:52.757Z,25.17
2019-04-21T11:20:22.806Z,20.37
2019-04-21T11:22:53.552Z,20.53
2019-04-21T11:25:24.135Z,20.77
2019-04-21T11:27:53.618Z,21.00
2019-04-21T11:30:23.375Z,19.17
2019-04-21T11:32:53.151Z,19.30
2019-04-21T11:35:23.412Z,18.53
2019-04-21T11:38:04.017Z,18.53
2019-04-21T11:40:25.435Z,19.07
2019-04-21T11:42:55.659Z,18.63
2019-04-21T11:45:34.527Z,19.50
2019-04-21T11:48:08.661Z,19.60
2019-04-21T11:50:39.123Z,21.33
2019-04-21T11:53:08.481Z,22.57
2019-04-21T11:55:41.106Z,20.10
2019-04-21T11:58:09.847Z,22.30
2019-04-21T12:00:39.930Z,22.63
2019-04-21T12:03:10.092Z,23.87
2019-04-21T12:05:41.363Z,20.40
2019-04-21T12:08:20.764Z,21.60
2019-04-21T12:10:41.883Z,19.30
2019-04-21T12:13:12.060Z,19.73
2019-04-21T12:15:41.383Z,21.90
2019-04-21T12:18:12.052Z,21.70
2019-04-21T12:20:41.296Z,21.90
2019-04-21T12:23:10.523Z,24.67
2019-04-21T12:25:45.587Z,25.63
2019-04-21T12:28:15.980Z,33.63
2019-04-21T12:30:47.390Z,26.63
2019-04-21T12:33:24.851Z,25.77
2019-04-21T12:35:54.061Z,24.57
2019-04-21T12:38:32.150Z,27.13
2019-04-21T12:40:54.877Z,26.90
2019-04-21T12:43:24.430Z,26.23
2019-04-21T12:45:53.875Z,28.27
2019-04-21T12:48:24.081Z,25.97
2019-04-21T12:50:54.216Z,26.60
2019-04-21T12:53:23.634Z,29.40
2019-04-21T12:55:53.801Z,29.00
2019-04-21T12:58:23.601Z,25.73
2019-04-21T13:00:53.016Z,27.47
2019-04-21T13:03:23.922Z,28.20
2019-04-21T13:05:53.740Z,28.07
2019-04-21T13:08:23.281Z,26.17
2019-04-21T13:10:52.484Z,33.10
2019-04-21T13:13:21.990Z,28.93
2019-04-21T13:15:51.750Z,26.83
2019-04-21T13:18:22.568Z,29.47
2019-04-21T13:20:51.997Z,28.40
2019-04-21T13:23:21.208Z,27.47
2019-04-21T13:25:50.407Z,30.43
2019-04-21T13:28:20.772Z,26.30
2019-04-21T13:30:50.636Z,33.53
2019-04-21T13:33:21.015Z,27.97
2019-04-21T13:35:50.948Z,28.53
2019-04-21T13:38:32.518Z,30.60
2019-04-21T13:41:15.006Z,25.50
2019-04-21T13:43:33.116Z,28.75
2019-04-21T13:46:03.698Z,25.68
2019-04-21T13:48:33.028Z,26.42
2019-04-21T13:51:02.661Z,26.20
2019-04-21T13:53:33.075Z,35.50
2019-04-21T13:56:04.601Z,25.65
2019-04-21T13:58:34.626Z,24.52
2019-04-21T14:01:03.853Z,25.72
2019-04-21T14:03:33.377Z,26.27
2019-04-21T14:06:02.799Z,24.27
2019-04-21T14:08:33.499Z,22.98
2019-04-21T14:11:02.794Z,24.02
2019-04-21T14:13:32.256Z,29.77
2019-04-21T14:16:02.149Z,23.15
2019-04-21T14:18:32.906Z,28.02
2019-04-21T14:21:03.103Z,24.98
2019-04-21T14:23:38.078Z,23.87
2019-04-21T14:26:03.888Z,28.23
2019-04-21T14:28:33.581Z,30.82
2019-04-21T14:31:04.267Z,24.92
2019-04-21T14:33:34.191Z,22.30
2019-04-21T14:36:05.098Z,26.80
2019-04-21T14:38:34.580Z,21.50
2019-04-21T14:41:04.040Z,24.43
2019-04-21T14:43:34.181Z,19.07
2019-04-21T14:46:22.461Z,20.97
2019-04-21T14:49:17.362Z,23.30
2019-04-21T14:51:54.832Z,18.98
2019-04-21T14:54:42.719Z,20.72
2019-04-21T14:57:13.483Z,19.40
2019-04-21T14:59:42.856Z,22.48
2019-04-21T15:02:12.162Z,23.50
2019-04-21T15:04:41.760Z,18.90
2019-04-21T15:07:11.220Z,19.60
2019-04-21T15:09:41.547Z,19.05
2019-04-21T15:12:11.855Z,18.73
2019-04-21T15:14:42.256Z,17.05
2019-04-21T15:17:12.511Z,15.80
2019-04-21T15:19:49.568Z,14.45
2019-04-21T15:22:14.517Z,13.43
2019-04-21T15:24:44.520Z,19.73
2019-04-21T15:27:14.701Z,16.62
2019-04-21T15:29:44.862Z,16.67
2019-04-21T15:32:14.863Z,18.40
2019-04-21T15:34:44.414Z,15.23
2019-04-21T15:37:13.805Z,16.90
2019-04-21T15:39:43.036Z,17.25
2019-04-21T15:42:12.602Z,18.92
2019-04-21T15:44:42.839Z,20.30
2019-04-21T15:47:12.074Z,17.32
2019-04-21T15:50:04.717Z,17.37
2019-04-21T15:52:28.111Z,20.05
2019-04-21T15:55:05.310Z,18.98
2019-04-21T15:57:54.423Z,19.70
2019-04-21T16:00:40.493Z,18.20
2019-04-21T16:03:10.800Z,19.62
2019-04-21T16:05:40.593Z,20.82
2019-04-21T16:08:12.077Z,20.88
2019-04-21T16:10:48.951Z,15.90
2019-04-21T16:13:13.896Z,17.42
2019-04-21T16:15:44.267Z,17.30
2019-04-21T16:18:14.155Z,14.53
2019-04-21T16:20:43.935Z,16.05
2019-04-21T16:23:14.769Z,19.02
2019-04-21T16:25:44.379Z,19.98
2019-04-21T16:28:15.128Z,20.25
2019-04-21T16:30:44.740Z,35.10
2019-04-21T16:33:16.040Z,29.80
2019-04-21T16:35:45.402Z,53.35
2019-04-21T16:38:15.429Z,48.90
2019-04-21T16:40:52.517Z,27.13
2019-04-21T16:43:16.382Z,27.73
2019-04-21T16:45:46.596Z,20.88
2019-04-21T16:48:16.961Z,31.15
2019-04-21T16:50:47.736Z,67.75
2019-04-21T16:53:24.042Z,90.70
2019-04-21T16:55:57.326Z,41.18
2019-04-21T16:58:58.875Z,25.45
2019-04-21T17:01:31.566Z,42.80
2019-04-21T17:04:00.556Z,27.77
2019-04-21T17:06:31.054Z,65.00
2019-04-21T17:09:00.964Z,64.32
2019-04-21T17:11:34.726Z,24.35
2019-04-21T17:14:01.294Z,29.63
2019-04-21T17:17:14.155Z,15.63
2019-04-21T17:19:12.780Z,17.82
2019-04-21T17:21:32.343Z,15.88
2019-04-21T17:24:02.181Z,17.20
2019-04-21T17:26:34.495Z,13.80
2019-04-21T17:29:02.716Z,16.55
2019-04-21T17:31:31.902Z,15.60
2019-04-21T17:34:09.578Z,19.32
2019-04-21T17:36:32.909Z,17.67
2019-04-21T17:39:02.417Z,19.48
2019-04-21T17:41:41.185Z,16.27
2019-04-21T17:44:04.331Z,16.07
2019-04-21T17:46:45.576Z,15.05
2019-04-21T17:49:08.670Z,17.53
2019-04-21T17:52:01.133Z,20.27
2019-04-21T17:54:35.703Z,15.47
2019-04-21T17:57:21.751Z,17.23
2019-04-21T18:00:08.186Z,19.77
2019-04-21T18:02:24.849Z,18.23
2019-04-21T18:04:57.715Z,21.23
2019-04-21T18:07:27.555Z,21.47
2019-04-21T18:12:26.602Z,18.73
2019-04-21T18:14:52.936Z,17.17
2019-04-21T18:17:14.129Z,15.47
2019-04-21T18:19:47.123Z,16.27
2019-04-21T18:22:37.619Z,14.80
2019-04-21T18:25:10.535Z,17.63
2019-04-21T18:27:36.625Z,16.93
2019-04-21T18:30:31.087Z,16.43
2019-04-21T18:33:00.217Z,16.10
2019-04-21T18:35:38.422Z,18.93
2019-04-21T18:38:16.954Z,17.87
2019-04-21T18:40:45.485Z,16.23
2019-04-21T18:43:53.242Z,18.33
2019-04-21T18:46:20.625Z,14.33
2019-04-21T18:48:45.825Z,15.73
2019-04-21T18:51:32.719Z,16.47
2019-04-21T18:54:31.376Z,14.20
2019-04-21T18:56:56.654Z,15.20
2019-04-21T18:59:16.404Z,12.53
2019-04-21T19:01:51.691Z,12.67
2019-04-21T19:04:20.426Z,14.90
2019-04-21T19:07:02.958Z,12.60
2019-04-21T19:09:46.691Z,14.27
2019-04-21T19:12:16.448Z,12.50
2019-04-21T19:20:07.498Z,12.60
2019-04-21T19:22:15.273Z,12.17
2019-04-21T19:24:54.866Z,13.37
2019-04-21T19:27:23.827Z,12.87
2019-04-21T19:30:01.649Z,12.80
2019-04-21T19:32:25.281Z,17.07
2019-04-21T19:34:40.651Z,12.77
2019-04-21T19:37:14.376Z,16.93
2019-04-21T19:39:51.228Z,14.53
2019-04-21T19:42:20.626Z,16.60
2019-04-21T19:44:59.276Z,17.93
2019-04-21T19:47:43.313Z,13.40
2019-04-21T19:50:10.741Z,16.30
2019-04-21T19:52:34.532Z,15.33
2019-04-21T19:54:56.721Z,14.70
2019-04-21T19:57:27.379Z,15.17
2019-04-21T20:00:00.366Z,14.03
2019-04-21T20:02:30.302Z,14.97
2019-04-21T20:05:05.949Z,16.27
2019-04-21T20:07:44.461Z,13.63
2019-04-21T20:10:22.721Z,14.53
2019-04-21T20:12:53.335Z,13.40
2019-04-21T20:15:30.258Z,14.50
2019-04-21T20:17:58.547Z,12.40
2019-04-21T20:20:21.907Z,13.83
2019-04-21T20:22:54.211Z,14.43
2019-04-21T20:25:25.681Z,11.87
2019-04-21T20:28:04.965Z,13.07
2019-04-21T20:30:59.569Z,12.97
2019-04-21T20:36:03.348Z,12.60
2019-04-21T20:38:26.444Z,12.53
2019-04-21T20:40:51.008Z,13.00
2019-04-21T20:43:36.507Z,12.23
2019-04-21T20:46:09.417Z,14.07
2019-04-21T20:48:40.109Z,12.83
2019-04-21T20:51:18.393Z,14.53
2019-04-21T20:53:45.275Z,13.03
2019-04-21T20:56:13.275Z,19.90
2019-04-21T20:58:55.839Z,20.30
2019-04-21T21:01:39.300Z,20.20
2019-04-21T21:03:55.646Z,24.47
2019-04-21T21:06:26.103Z,22.53
2019-04-21T21:09:03.545Z,23.43
2019-04-21T21:11:45.161Z,19.00
2019-04-21T21:14:11.355Z,19.93
2019-04-21T21:16:50.748Z,17.33
2019-04-21T21:19:23.872Z,20.77
2019-04-21T21:21:48.590Z,16.67
2019-04-21T21:24:31.196Z,17.17
2019-04-21T21:27:00.510Z,14.30
2019-04-21T21:29:33.531Z,13.63
2019-04-21T21:32:14.961Z,12.73
2019-04-21T21:34:42.529Z,16.83
2019-04-21T21:37:14.183Z,13.87
2019-04-21T21:39:49.184Z,15.10
2019-04-21T21:41:58.591Z,12.47
2019-04-21T21:44:26.886Z,16.53
2019-04-21T21:47:08.748Z,16.37
2019-04-21T21:49:54.105Z,14.53
2019-04-21T21:52:18.279Z,14.40
2019-04-21T21:54:43.606Z,14.63
2019-04-21T21:57:14.492Z,14.07
2019-04-21T21:59:45.489Z,13.73
2019-04-21T22:02:27.397Z,13.60
2019-04-21T22:04:56.866Z,14.47
2019-04-21T22:07:24.844Z,14.07
2019-04-21T22:09:54.465Z,14.27
2019-04-21T22:12:45.498Z,12.90
2019-04-21T22:15:18.331Z,15.07
2019-04-21T22:18:04.476Z,13.43
2019-04-21T22:20:33.406Z,15.07
2019-04-21T22:22:56.321Z,14.43
2019-04-21T22:25:25.472Z,13.17
2019-04-21T22:27:53.628Z,14.70
2019-04-21T22:30:29.002Z,14.60
2019-04-21T22:33:03.797Z,14.23
2019-04-21T22:35:41.811Z,13.47
2019-04-21T22:38:37.560Z,13.13
2019-04-21T22:41:00.369Z,11.93
2019-04-21T22:43:31.759Z,13.03
2019-04-21T22:45:53.863Z,15.67
2019-04-21T22:48:26.620Z,14.40
2019-04-21T22:51:02.558Z,12.60
2019-04-21T22:53:36.026Z,15.03
2019-04-21T22:56:12.506Z,16.37
2019-04-21T22:58:39.311Z,12.23
2019-04-21T23:01:09.698Z,13.90
2019-04-21T23:03:49.199Z,13.20
2019-04-21T23:06:17.898Z,13.73
2019-04-21T23:08:45.641Z,12.40
2019-04-21T23:11:17.639Z,16.00
2019-04-21T23:13:54.973Z,11.87
2019-04-21T23:16:27.926Z,14.13
2019-04-21T23:19:14.273Z,14.97
2019-04-21T23:21:48.943Z,12.10
2019-04-21T23:24:17.904Z,15.50
2019-04-21T23:26:47.263Z,12.47
2019-04-21T23:29:35.755Z,14.13
2019-04-21T23:31:55.094Z,13.03
2019-04-21T23:34:06.449Z,12.70
2019-04-21T23:36:41.862Z,13.67
2019-04-21T23:39:15.695Z,11.27
2019-04-21T23:41:46.062Z,11.30
2019-04-21T23:44:17.158Z,12.03
2019-04-21T23:46:54.899Z,10.70
2019-04-21T23:49:34.558Z,11.60
2019-04-21T23:52:00.850Z,11.07
2019-04-21T23:54:25.221Z,13.27
2019-04-21T23:56:55.811Z,12.70
2019-04-21T23:59:31.219Z,13.37
